createdAt,value
2024-02-29T00:00:18.106Z,11.20
2024-02-29T00:02:45.097Z,8.50
2024-02-29T00:05:13.519Z,10.57
2024-02-29T00:07:41.660Z,9.25
2024-02-29T00:10:10.363Z,11.38
2024-02-29T00:12:37.711Z,11.48
2024-02-29T00:15:05.300Z,10.80
2024-02-29T00:17:33.126Z,10.93
2024-02-29T00:20:00.972Z,9.98
2024-02-29T00:22:28.021Z,10.48
2024-02-29T00:24:55.174Z,11.05
2024-02-29T00:27:23.157Z,12.05
2024-02-29T00:29:50.205Z,12.13
2024-02-29T00:32:17.530Z,12.48
2024-02-29T00:34:44.937Z,11.30
2024-02-29T00:37:12.055Z,16.50
2024-02-29T00:39:39.199Z,14.45
2024-02-29T00:42:06.710Z,12.23
2024-02-29T00:44:33.987Z,12.35
2024-02-29T00:47:11.938Z,12.38
2024-02-29T00:49:40.739Z,11.88
2024-02-29T00:52:09.250Z,14.18
2024-02-29T00:54:36.762Z,14.95
2024-02-29T00:57:04.113Z,11.45
2024-02-29T00:59:31.425Z,11.30
2024-02-29T01:01:58.813Z,12.30
2024-02-29T01:04:28.252Z,12.68
2024-02-29T01:06:55.752Z,14.45
2024-02-29T01:09:28.488Z,15.55
2024-02-29T01:11:56.342Z,10.75
2024-02-29T01:14:23.973Z,12.07
2024-02-29T01:16:52.310Z,11.68
2024-02-29T01:19:21.698Z,15.13
2024-02-29T01:21:49.053Z,10.70
2024-02-29T01:24:16.235Z,13.85
2024-02-29T01:26:43.441Z,12.68
2024-02-29T01:29:10.452Z,11.80
2024-02-29T01:31:37.972Z,11.77
2024-02-29T01:34:06.205Z,13.40
2024-02-29T01:36:33.354Z,15.43
2024-02-29T01:39:00.704Z,15.00
2024-02-29T01:41:27.938Z,12.40
2024-02-29T01:43:56.123Z,12.45
2024-02-29T01:46:24.226Z,13.15
2024-02-29T01:48:52.268Z,14.57
2024-02-29T01:51:21.591Z,12.52
2024-02-29T01:53:49.283Z,13.10
2024-02-29T01:56:19.530Z,10.73
2024-02-29T01:58:46.676Z,12.93
2024-02-29T02:01:15.140Z,14.07
2024-02-29T02:03:43.376Z,11.35
2024-02-29T02:06:11.077Z,12.20
2024-02-29T02:08:38.769Z,12.80
2024-02-29T02:11:06.001Z,10.65
2024-02-29T02:13:33.350Z,13.60
2024-02-29T02:16:01.193Z,10.60
2024-02-29T02:18:28.706Z,10.00
2024-02-29T02:20:57.340Z,14.77
2024-02-29T02:23:24.364Z,13.02
2024-02-29T02:25:52.956Z,9.68
2024-02-29T02:28:20.707Z,14.25
2024-02-29T02:30:48.485Z,11.27
2024-02-29T02:33:16.320Z,11.70
2024-02-29T02:35:43.638Z,11.65
2024-02-29T02:38:10.995Z,10.32
2024-02-29T02:40:40.901Z,10.43
2024-02-29T02:43:08.254Z,10.43
2024-02-29T02:45:35.408Z,10.95
2024-02-29T02:48:03.980Z,14.35
2024-02-29T02:50:31.034Z,12.25
2024-02-29T02:52:58.280Z,13.55
2024-02-29T02:55:26.467Z,11.10
2024-02-29T02:57:53.610Z,13.10
2024-02-29T03:00:20.695Z,11.82
2024-02-29T03:02:48.044Z,12.52
2024-02-29T03:05:15.359Z,11.48
2024-02-29T03:07:42.821Z,11.90
2024-02-29T03:10:10.705Z,12.95
2024-02-29T03:12:39.431Z,11.32
2024-02-29T03:15:07.763Z,11.80
2024-02-29T03:17:35.333Z,13.40
2024-02-29T03:20:03.225Z,11.25
2024-02-29T03:22:30.727Z,13.63
2024-02-29T03:24:58.441Z,12.93
2024-02-29T03:27:25.554Z,12.10
2024-02-29T03:29:53.017Z,11.75
2024-02-29T03:32:23.752Z,11.30
2024-02-29T03:34:52.556Z,13.80
2024-02-29T03:37:21.119Z,12.98
2024-02-29T03:39:50.053Z,10.73
2024-02-29T03:42:18.680Z,13.77
2024-02-29T03:44:47.576Z,11.55
2024-02-29T03:47:14.886Z,12.98
2024-02-29T03:49:42.108Z,12.82
2024-02-29T03:52:09.233Z,12.07
2024-02-29T03:54:36.339Z,11.52
2024-02-29T03:57:03.968Z,13.20
2024-02-29T03:59:32.403Z,12.35
2024-02-29T04:02:01.332Z,11.82
2024-02-29T04:04:28.653Z,12.52
2024-02-29T04:06:56.040Z,11.85
2024-02-29T04:09:24.514Z,15.48
2024-02-29T04:11:52.202Z,15.38
2024-02-29T04:14:19.260Z,12.95
2024-02-29T04:16:46.232Z,12.57
2024-02-29T04:19:13.386Z,13.75
2024-02-29T04:21:45.135Z,12.23
2024-02-29T04:24:13.712Z,10.60
2024-02-29T04:26:41.535Z,11.77
2024-02-29T04:29:08.595Z,11.88
2024-02-29T04:31:35.643Z,13.23
2024-02-29T04:34:03.454Z,12.07
2024-02-29T04:36:33.214Z,13.13
2024-02-29T04:39:00.535Z,12.80
2024-02-29T04:41:27.534Z,13.75
2024-02-29T04:43:55.225Z,14.98
2024-02-29T04:46:22.483Z,12.55
2024-02-29T04:48:50.345Z,12.68
2024-02-29T04:51:17.370Z,12.98
2024-02-29T04:53:44.406Z,12.75
2024-02-29T04:56:11.700Z,12.45
2024-02-29T04:58:38.673Z,12.30
2024-02-29T05:01:06.060Z,13.75
2024-02-29T05:03:34.868Z,14.73
2024-02-29T05:06:02.030Z,11.45
2024-02-29T05:08:29.585Z,12.45
2024-02-29T05:10:56.626Z,13.52
2024-02-29T05:13:23.921Z,12.32
2024-02-29T05:15:51.058Z,13.15
2024-02-29T05:18:18.321Z,15.15
2024-02-29T05:20:45.363Z,12.77
2024-02-29T05:23:12.528Z,16.42
2024-02-29T05:25:40.482Z,13.25
2024-02-29T05:28:07.629Z,14.38
2024-02-29T05:30:35.513Z,13.13
2024-02-29T05:33:02.960Z,15.98
2024-02-29T05:35:31.116Z,15.77
2024-02-29T05:37:59.716Z,15.70
2024-02-29T05:40:28.212Z,12.85
2024-02-29T05:42:58.113Z,16.77
2024-02-29T05:45:25.481Z,15.13
2024-02-29T05:47:52.653Z,16.83
2024-02-29T05:50:20.573Z,18.83
2024-02-29T05:52:48.648Z,18.27
2024-02-29T05:55:16.715Z,18.27
2024-02-29T05:57:43.978Z,20.00
2024-02-29T06:08:59.562Z,16.02
2024-02-29T06:11:27.095Z,16.70
2024-02-29T06:13:54.099Z,17.77
2024-02-29T06:16:21.939Z,16.00
2024-02-29T06:18:49.421Z,20.70
2024-02-29T06:21:16.452Z,21.35
2024-02-29T06:23:43.325Z,40.85
2024-02-29T06:26:10.464Z,39.65
2024-02-29T06:28:38.218Z,48.25
2024-02-29T06:31:05.334Z,56.70
2024-02-29T06:33:32.285Z,62.58
2024-02-29T06:36:00.212Z,72.78
2024-02-29T06:38:27.255Z,73.47
2024-02-29T06:40:54.200Z,73.85
2024-02-29T06:43:22.009Z,68.90
2024-02-29T06:45:50.662Z,71.55
2024-02-29T06:48:19.431Z,72.68
2024-02-29T06:50:46.890Z,77.38
2024-02-29T06:53:14.712Z,78.97
2024-02-29T06:55:42.150Z,77.47
2024-02-29T06:58:09.240Z,87.03
2024-02-29T07:00:36.623Z,82.80
2024-02-29T07:03:03.983Z,88.60
2024-02-29T07:05:33.407Z,95.85
2024-02-29T07:08:02.825Z,97.68
2024-02-29T07:10:29.927Z,98.30
2024-02-29T07:12:57.039Z,103.07
2024-02-29T07:15:24.238Z,102.50
2024-02-29T07:17:51.238Z,87.60
2024-02-29T07:20:19.145Z,89.65
2024-02-29T07:22:47.921Z,89.93
2024-02-29T07:25:15.891Z,86.78
2024-02-29T07:27:46.327Z,79.25
2024-02-29T07:30:13.701Z,61.17
2024-02-29T07:32:40.676Z,57.55
2024-02-29T07:35:08.475Z,58.85
2024-02-29T07:37:35.520Z,62.90
2024-02-29T07:40:02.518Z,55.80
2024-02-29T07:42:29.556Z,53.22
2024-02-29T07:44:56.443Z,61.28
2024-02-29T07:47:24.104Z,61.92
2024-02-29T07:49:51.222Z,68.28
2024-02-29T07:52:18.193Z,69.40
2024-02-29T07:54:47.052Z,66.50
2024-02-29T07:57:14.247Z,56.20
2024-02-29T07:59:41.403Z,53.58
2024-02-29T08:02:08.801Z,38.78
2024-02-29T08:04:37.943Z,37.95
2024-02-29T08:07:05.415Z,35.47
2024-02-29T08:09:33.036Z,36.78
2024-02-29T08:12:00.013Z,34.90
2024-02-29T08:14:28.489Z,35.38
2024-02-29T08:16:55.535Z,30.30
2024-02-29T08:19:24.639Z,34.05
2024-02-29T08:21:52.290Z,30.42
2024-02-29T08:24:19.638Z,28.33
2024-02-29T08:26:46.969Z,28.00
2024-02-29T08:29:17.853Z,28.70
2024-02-29T08:31:45.341Z,28.83
2024-02-29T08:34:12.493Z,29.92
2024-02-29T08:36:39.650Z,30.60
2024-02-29T08:39:06.955Z,28.55
2024-02-29T08:41:33.981Z,28.05
2024-02-29T08:44:01.092Z,29.77
2024-02-29T08:46:28.215Z,29.83
2024-02-29T08:48:56.524Z,27.15
2024-02-29T08:51:23.455Z,28.65
2024-02-29T08:53:50.399Z,28.85
2024-02-29T08:56:17.291Z,25.30
2024-02-29T08:58:44.392Z,29.73
2024-02-29T09:01:11.281Z,26.45
2024-02-29T09:03:38.248Z,25.75
2024-02-29T09:06:05.429Z,28.42
2024-02-29T09:08:32.480Z,26.00
2024-02-29T09:10:59.456Z,26.58
2024-02-29T09:13:34.454Z,26.05
2024-02-29T09:16:04.898Z,27.60
2024-02-29T09:18:31.934Z,26.42
2024-02-29T09:20:58.872Z,28.25
2024-02-29T09:23:27.733Z,24.45
2024-02-29T09:25:55.462Z,25.75
2024-02-29T09:28:23.041Z,26.40
2024-02-29T09:30:50.393Z,26.35
2024-02-29T09:33:17.779Z,24.55
2024-02-29T09:35:44.739Z,24.02
2024-02-29T09:38:11.748Z,26.73
2024-02-29T09:40:46.250Z,27.40
2024-02-29T09:43:20.048Z,24.05
2024-02-29T09:45:47.875Z,24.88
2024-02-29T09:48:16.452Z,25.30
2024-02-29T09:50:44.044Z,27.92
2024-02-29T09:53:12.623Z,24.13
2024-02-29T09:55:39.561Z,23.52
2024-02-29T09:58:08.407Z,24.45
2024-02-29T10:00:35.966Z,24.67
2024-02-29T10:03:03.596Z,23.75
2024-02-29T10:05:31.216Z,22.98
2024-02-29T10:08:03.247Z,21.98
2024-02-29T10:10:32.450Z,23.15
2024-02-29T10:12:59.515Z,22.73
2024-02-29T10:15:30.170Z,23.02
2024-02-29T10:17:57.746Z,22.33
2024-02-29T10:20:25.841Z,22.15
2024-02-29T10:22:53.229Z,23.67
2024-02-29T10:25:21.579Z,23.45
2024-02-29T10:27:49.105Z,24.05
2024-02-29T10:30:17.987Z,23.00
2024-02-29T10:32:46.554Z,24.27
2024-02-29T10:35:28.365Z,27.60
2024-02-29T10:37:56.598Z,24.20
2024-02-29T10:40:25.619Z,25.42
2024-02-29T10:42:56.333Z,21.50
2024-02-29T10:45:27.033Z,23.10
2024-02-29T10:48:01.535Z,25.08
2024-02-29T10:50:31.767Z,22.00
2024-02-29T10:53:28.641Z,27.10
2024-02-29T10:56:03.519Z,23.00
2024-02-29T10:58:41.637Z,22.30
2024-02-29T11:01:09.007Z,21.50
2024-02-29T11:03:37.669Z,23.17
2024-02-29T11:06:05.396Z,23.73
2024-02-29T11:08:33.409Z,25.23
2024-02-29T11:11:01.304Z,24.95
2024-02-29T11:13:31.982Z,25.15
2024-02-29T11:15:58.998Z,22.55
2024-02-29T11:18:26.638Z,22.95
2024-02-29T11:21:06.734Z,23.05
2024-02-29T11:23:39.229Z,22.23
2024-02-29T11:26:11.945Z,27.15
2024-02-29T11:28:43.286Z,25.42
2024-02-29T11:31:20.380Z,23.77
2024-02-29T11:33:47.844Z,22.58
2024-02-29T11:36:16.055Z,20.38
2024-02-29T11:38:44.534Z,24.02
2024-02-29T11:41:22.005Z,22.33
2024-02-29T11:43:50.442Z,24.15
2024-02-29T11:46:18.557Z,22.67
2024-02-29T11:57:56.939Z,22.90
2024-02-29T12:15:06.670Z,25.95
2024-02-29T12:17:34.744Z,21.75
2024-02-29T12:20:02.377Z,24.00
2024-02-29T12:22:29.896Z,25.02
2024-02-29T12:24:58.755Z,23.35
2024-02-29T12:27:25.976Z,23.73
2024-02-29T12:29:53.529Z,23.80
2024-02-29T12:32:21.388Z,23.73
2024-02-29T12:34:48.448Z,23.90
2024-02-29T12:37:15.414Z,24.05
2024-02-29T12:39:43.366Z,23.70
2024-02-29T12:42:11.614Z,23.15
2024-02-29T12:44:39.574Z,23.83
2024-02-29T12:47:06.912Z,22.80
2024-02-29T12:49:33.898Z,21.17
2024-02-29T12:52:02.848Z,20.98
2024-02-29T12:54:29.772Z,22.52
2024-02-29T12:56:56.746Z,21.23
2024-02-29T12:59:24.464Z,24.15
2024-02-29T13:01:54.883Z,23.17
2024-02-29T13:04:22.100Z,24.15
2024-02-29T13:06:49.342Z,21.75
2024-02-29T13:09:20.871Z,23.48
2024-02-29T13:11:48.354Z,25.13
2024-02-29T13:14:16.591Z,24.23
2024-02-29T13:16:43.827Z,22.45
2024-02-29T13:19:15.692Z,22.40
2024-02-29T13:21:43.239Z,21.60
2024-02-29T13:24:10.360Z,21.25
2024-02-29T13:26:37.427Z,24.20
2024-02-29T13:29:04.616Z,22.85
2024-02-29T13:31:31.881Z,23.02
2024-02-29T13:33:59.260Z,22.95
2024-02-29T13:36:26.277Z,22.85
2024-02-29T13:38:53.690Z,22.33
2024-02-29T13:41:20.623Z,21.98
2024-02-29T13:43:47.516Z,20.80
2024-02-29T13:46:15.455Z,20.00
2024-02-29T13:48:47.717Z,18.92
2024-02-29T13:51:15.655Z,19.45
2024-02-29T13:53:44.034Z,19.30
2024-02-29T13:56:11.334Z,20.67
2024-02-29T13:58:38.298Z,18.33
2024-02-29T14:01:08.485Z,18.67
2024-02-29T14:03:36.636Z,18.50
2024-02-29T14:06:03.730Z,18.17
2024-02-29T14:08:30.951Z,18.77
2024-02-29T14:10:58.513Z,17.92
2024-02-29T14:13:25.616Z,18.52
2024-02-29T14:15:52.691Z,16.85
2024-02-29T14:18:21.448Z,17.13
2024-02-29T14:20:48.416Z,18.67
2024-02-29T14:23:15.868Z,20.00
2024-02-29T14:25:43.125Z,21.35
2024-02-29T14:28:10.208Z,18.58
2024-02-29T14:30:38.333Z,18.65
2024-02-29T14:33:06.117Z,19.85
2024-02-29T14:35:38.839Z,17.52
2024-02-29T14:38:06.235Z,18.38
2024-02-29T14:40:33.342Z,17.02
2024-02-29T14:43:00.786Z,17.95
2024-02-29T14:45:27.717Z,17.65
2024-02-29T14:47:55.688Z,17.98
2024-02-29T14:50:23.399Z,15.93
2024-02-29T14:52:50.431Z,15.75
2024-02-29T14:55:18.327Z,16.05
2024-02-29T14:57:45.859Z,13.90
2024-02-29T15:00:13.707Z,13.77
2024-02-29T15:02:43.046Z,14.20
2024-02-29T15:05:10.447Z,16.83
2024-02-29T15:07:38.076Z,17.98
2024-02-29T15:10:06.288Z,15.60
2024-02-29T15:12:33.918Z,14.52
2024-02-29T15:15:01.021Z,15.15
2024-02-29T15:17:30.648Z,14.80
2024-02-29T15:19:59.493Z,16.25
2024-02-29T15:22:27.475Z,15.00
2024-02-29T15:24:54.644Z,15.02
2024-02-29T15:27:22.595Z,15.82
2024-02-29T15:29:50.762Z,15.25
2024-02-29T15:32:20.896Z,15.57
2024-02-29T15:34:48.294Z,14.10
2024-02-29T15:37:15.552Z,14.70
2024-02-29T15:39:42.614Z,13.90
2024-02-29T15:42:10.178Z,15.25
2024-02-29T15:44:37.237Z,14.57
2024-02-29T15:47:04.596Z,14.63
2024-02-29T15:49:31.757Z,13.32
2024-02-29T15:51:59.399Z,14.15
2024-02-29T15:54:27.529Z,14.43
2024-02-29T15:56:57.604Z,16.52
2024-02-29T15:59:24.686Z,16.23
2024-02-29T16:01:51.911Z,12.65
2024-02-29T16:04:23.400Z,12.18
2024-02-29T16:06:50.455Z,14.60
2024-02-29T16:09:17.384Z,14.18
2024-02-29T16:11:44.944Z,14.15
2024-02-29T16:14:12.428Z,11.38
2024-02-29T16:16:40.064Z,12.43
2024-02-29T16:19:07.153Z,14.40
2024-02-29T16:21:34.075Z,14.07
2024-02-29T16:24:01.344Z,11.13
2024-02-29T16:26:28.419Z,12.75
2024-02-29T16:28:56.154Z,11.32
2024-02-29T16:31:23.315Z,14.27
2024-02-29T16:33:50.685Z,12.38
2024-02-29T16:36:18.653Z,15.43
2024-02-29T16:38:45.953Z,12.57
2024-02-29T16:41:13.096Z,11.85
2024-02-29T16:43:40.114Z,10.15
2024-02-29T16:46:08.778Z,10.90
2024-02-29T16:48:35.743Z,10.65
2024-02-29T16:51:02.807Z,9.57
2024-02-29T16:53:29.646Z,11.43
2024-02-29T16:55:57.620Z,10.65
2024-02-29T16:58:24.680Z,11.82
2024-02-29T17:00:52.747Z,10.85
2024-02-29T17:03:19.599Z,11.68
2024-02-29T17:05:46.909Z,11.38
2024-02-29T17:08:13.924Z,11.98
2024-02-29T17:10:42.121Z,9.95
2024-02-29T17:13:09.180Z,10.60
2024-02-29T17:15:38.257Z,9.05
2024-02-29T17:18:05.662Z,11.43
2024-02-29T17:20:33.068Z,10.18
2024-02-29T17:22:59.951Z,11.45
2024-02-29T17:28:19.004Z,10.50
2024-02-29T17:30:47.539Z,9.20
2024-02-29T17:33:14.616Z,12.45
2024-02-29T17:35:41.508Z,12.55
2024-02-29T17:38:11.633Z,11.73
2024-02-29T17:40:38.532Z,8.43
2024-02-29T17:43:05.647Z,11.50
2024-02-29T17:45:33.252Z,11.05
2024-02-29T17:48:00.559Z,10.80
2024-02-29T17:50:31.437Z,10.43
2024-02-29T17:52:58.703Z,8.60
2024-02-29T17:55:26.176Z,9.70
2024-02-29T17:57:53.372Z,10.88
2024-02-29T18:00:21.190Z,11.30
2024-02-29T18:02:48.203Z,12.13
2024-02-29T18:05:16.287Z,12.43
2024-02-29T18:07:50.645Z,11.85
2024-02-29T18:10:22.984Z,13.82
2024-02-29T18:12:51.550Z,11.82
2024-02-29T18:15:18.547Z,10.80
2024-02-29T18:17:45.508Z,13.80
2024-02-29T18:20:15.610Z,12.30
2024-02-29T18:22:42.933Z,14.38
2024-02-29T18:25:10.246Z,11.50
2024-02-29T18:27:37.332Z,13.52
2024-02-29T18:30:08.372Z,12.80
2024-02-29T18:32:35.588Z,13.40
2024-02-29T18:35:07.173Z,13.40
2024-02-29T18:37:34.657Z,13.98
2024-02-29T18:40:01.639Z,15.38
2024-02-29T18:42:29.734Z,13.57
2024-02-29T18:44:59.250Z,16.15
2024-02-29T18:47:27.087Z,13.18
2024-02-29T18:49:54.065Z,13.52
2024-02-29T18:52:21.172Z,17.15
2024-02-29T18:54:48.341Z,14.90
2024-02-29T18:57:15.376Z,14.30
2024-02-29T18:59:43.032Z,13.93
2024-02-29T19:02:10.066Z,14.82
2024-02-29T19:04:37.040Z,15.60
2024-02-29T19:07:04.304Z,16.92
2024-02-29T19:09:32.714Z,15.13
2024-02-29T19:11:59.912Z,15.38
2024-02-29T19:14:26.941Z,14.23
2024-02-29T19:16:55.018Z,16.63
2024-02-29T19:19:22.366Z,16.58
2024-02-29T19:21:50.744Z,13.90
2024-02-29T19:24:18.715Z,17.42
2024-02-29T19:26:46.197Z,14.27
2024-02-29T19:29:13.606Z,14.80
2024-02-29T19:31:41.217Z,15.18
2024-02-29T19:34:08.916Z,19.85
2024-02-29T19:36:36.293Z,15.32
2024-02-29T19:39:04.161Z,17.40
2024-02-29T19:41:31.125Z,18.63
2024-02-29T19:43:58.214Z,17.52
2024-02-29T19:46:25.233Z,18.35
2024-02-29T19:48:53.144Z,20.48
2024-02-29T19:51:20.578Z,18.75
2024-02-29T19:53:47.884Z,19.77
2024-02-29T19:56:15.210Z,20.88
2024-02-29T19:58:42.174Z,19.73
2024-02-29T20:01:09.310Z,18.42
2024-02-29T20:03:36.376Z,19.10
2024-02-29T20:06:03.613Z,20.20
2024-02-29T20:08:31.123Z,19.17
2024-02-29T20:10:58.050Z,16.25
2024-02-29T20:13:26.041Z,16.85
2024-02-29T20:15:53.142Z,25.67
2024-02-29T20:18:20.608Z,20.58
2024-02-29T20:20:47.973Z,18.63
2024-02-29T20:23:17.552Z,19.95
2024-02-29T20:25:44.954Z,28.23
2024-02-29T20:28:11.900Z,19.40
2024-02-29T20:30:39.383Z,16.50
2024-02-29T20:33:07.220Z,19.15
2024-02-29T20:35:34.201Z,15.63
2024-02-29T20:38:01.287Z,18.00
2024-02-29T20:40:28.608Z,18.08
2024-02-29T20:42:56.497Z,19.88
2024-02-29T20:45:23.836Z,17.75
2024-02-29T20:47:50.808Z,18.35
2024-02-29T20:50:18.339Z,18.75
2024-02-29T20:52:45.503Z,18.00
2024-02-29T20:55:12.435Z,21.45
2024-02-29T20:57:39.923Z,20.40
2024-02-29T21:00:10.728Z,19.45
2024-02-29T21:02:38.018Z,17.92
2024-02-29T21:05:05.696Z,15.98
2024-02-29T21:07:33.776Z,17.23
2024-02-29T21:10:02.374Z,17.63
2024-02-29T21:12:29.325Z,19.70
2024-02-29T21:14:56.220Z,17.85
2024-02-29T21:17:23.187Z,16.23
2024-02-29T21:19:50.125Z,15.38
2024-02-29T21:22:17.109Z,15.45
2024-02-29T21:24:44.149Z,13.48
2024-02-29T21:27:11.173Z,13.95
2024-02-29T21:29:40.422Z,14.75
2024-02-29T21:32:08.389Z,19.52
2024-02-29T21:34:35.720Z,22.25
2024-02-29T21:37:02.589Z,17.98
2024-02-29T21:39:36.520Z,18.90
2024-02-29T21:42:09.889Z,18.73
2024-02-29T21:44:36.942Z,18.85
2024-02-29T21:47:04.030Z,18.30
2024-02-29T21:49:30.906Z,20.25
2024-02-29T21:51:58.418Z,18.75
2024-02-29T21:54:25.349Z,18.48
2024-02-29T21:56:53.893Z,18.00
2024-02-29T21:59:20.768Z,20.85
2024-02-29T22:01:49.205Z,19.67
2024-02-29T22:04:16.610Z,21.38
2024-02-29T22:06:44.247Z,17.30
2024-02-29T22:09:11.902Z,18.80
2024-02-29T22:11:38.826Z,17.67
2024-02-29T22:14:06.200Z,21.13
2024-02-29T22:16:33.985Z,17.85
2024-02-29T22:19:01.468Z,18.33
2024-02-29T22:21:29.415Z,20.17
2024-02-29T22:23:58.635Z,19.67
2024-02-29T22:26:25.623Z,20.10
2024-02-29T22:28:55.440Z,20.13
2024-02-29T22:31:22.490Z,15.52
2024-02-29T22:33:49.912Z,17.88
2024-02-29T22:36:16.760Z,16.92
2024-02-29T22:38:44.225Z,20.42
2024-02-29T22:41:11.136Z,17.90
2024-02-29T22:43:38.039Z,17.67
2024-02-29T22:46:05.060Z,18.05
2024-02-29T22:48:32.135Z,19.90
2024-02-29T22:50:59.869Z,15.68
2024-02-29T22:53:26.822Z,20.00
2024-02-29T22:55:53.698Z,17.00
2024-02-29T22:58:21.321Z,19.13
2024-02-29T23:03:18.463Z,19.65
2024-02-29T23:05:46.096Z,19.02
2024-02-29T23:08:13.112Z,17.83
2024-02-29T23:10:40.042Z,17.23
2024-02-29T23:13:07.698Z,19.05
2024-02-29T23:15:34.941Z,19.98
2024-02-29T23:18:02.128Z,17.15
2024-02-29T23:20:29.782Z,20.08
2024-02-29T23:22:58.221Z,17.10
2024-02-29T23:25:26.013Z,17.88
2024-02-29T23:27:53.513Z,21.98
2024-02-29T23:30:21.117Z,18.67
2024-02-29T23:32:48.181Z,20.83
2024-02-29T23:35:15.181Z,19.80
2024-02-29T23:37:42.423Z,21.17
2024-02-29T23:40:10.138Z,17.80
2024-02-29T23:42:37.042Z,17.08
2024-02-29T23:45:05.072Z,19.13
2024-02-29T23:47:32.627Z,16.67
2024-02-29T23:50:01.232Z,16.35
2024-02-29T23:52:28.209Z,17.15
2024-02-29T23:54:55.095Z,17.08
2024-02-29T23:57:21.989Z,16.58
2024-02-29T23:59:49.021Z,18.58
